Time;durP1;ratioP1;P1;durP2;ratioP2;P2;SDS_P1;SDS_P2;PMS_P1;PMS_P2;Temp;Humidity;BMP_temperature;BMP_pressure;BME280_temperature;BME280_humidity;BME280_pressure;Samples;Min_cycle;Max_cycle;Signal;HPM_P1;HPM_P2
2022/12/02 00:01:42;;;;;;;69.10;34.53;;;;;;;2.58;100.00;67066.47;4977156;28;20046;-83
2022/12/02 00:04:22;;;;;;;66.88;32.30;;;;;;;2.62;100.00;67073.63;4977646;28;20030;-83
2022/12/02 00:06:51;;;;;;;71.38;34.00;;;;;;;2.63;100.00;67064.78;4980211;28;20027;-82
2022/12/02 00:09:25;;;;;;;67.97;33.33;;;;;;;2.65;100.00;67066.50;4985033;28;20099;-82
2022/12/02 00:11:51;;;;;;;66.30;31.58;;;;;;;2.67;100.00;67074.00;4978385;28;20075;-83
2022/12/02 00:14:24;;;;;;;69.53;32.00;;;;;;;2.68;100.00;67075.13;4977284;28;20034;-82
2022/12/02 00:16:50;;;;;;;70.22;36.08;;;;;;;;;;4977651;28;20049;-82
2022/12/02 00:19:15;;;;;;;62.75;34.38;;;;;;;2.62;100.00;67068.38;4992724;28;20771;-82
2022/12/02 00:21:41;;;;;;;64.85;34.05;;;;;;;2.64;100.00;67073.25;4976554;28;20042;-83
2022/12/02 00:24:06;;;;;;;70.13;36.25;;;;;;;2.64;100.00;67070.59;4975552;28;20398;-83
2022/12/02 00:26:31;;;;;;;68.60;35.50;;;;;;;;;;4990273;28;20042;-83
2022/12/02 00:28:57;;;;;;;72.10;34.03;;;;;;;;;;4996362;28;20050;-83
2022/12/02 00:31:22;;;;;;;71.65;36.92;;;;;;;2.62;100.00;67068.38;4993866;28;20054;-83
2022/12/02 00:33:47;;;;;;;74.13;36.17;;;;;;;2.61;100.00;67067.78;4959410;28;20074;-83
2022/12/02 00:36:13;;;;;;;74.63;37.63;;;;;;;2.64;100.00;67073.25;4964879;28;20039;-83
2022/12/02 00:38:38;;;;;;;67.68;34.28;;;;;;;2.63;100.00;67070.03;4978800;28;20461;-83
2022/12/02 00:41:04;;;;;;;62.60;30.20;;;;;;;2.67;100.00;67074.00;4982261;28;20040;-83
2022/12/02 00:46:31;;;;;;;67.28;35.50;;;;;;;2.63;100.00;67064.22;4984776;28;20050;-83
2022/12/02 00:49:11;;;;;;;70.07;37.40;;;;;;;2.57;100.00;67062.72;4976368;28;20038;-83
2022/12/02 00:51:38;;;;;;;66.68;34.92;;;;;;;2.64;100.00;67070.59;4974202;28;20051;-82
2022/12/02 00:54:05;;;;;;;70.95;35.60;;;;;;;2.60;100.00;67066.09;4986589;28;20054;-82
2022/12/02 00:56:30;;;;;;;65.85;33.97;;;;;;;;;;4987382;28;20057;-82
2022/12/02 00:58:55;;;;;;;67.18;35.53;;;;;;;2.58;100.00;67063.84;4997635;28;20058;-83
2022/12/02 01:01:21;;;;;;;69.00;35.15;;;;;;;2.63;100.00;67069.50;4996703;28;20042;-83
2022/12/02 01:03:46;;;;;;;71.25;36.90;;;;;;;;;;4989081;28;20126;-82
2022/12/02 01:06:12;;;;;;;69.53;34.95;;;;;;;;;;4974556;28;20082;-82
2022/12/02 01:08:37;;;;;;;70.78;35.03;;;;;;;2.58;100.00;67066.47;4976184;28;20300;-83
2022/12/02 01:11:03;;;;;;;63.08;32.78;;;;;;;;;;4980103;28;20030;-82
2022/12/02 01:13:28;;;;;;;66.32;33.15;;;;;;;2.61;100.00;67067.78;4977259;28;20102;-82
2022/12/02 01:15:54;;;;;;;64.85;34.20;;;;;;;2.58;100.00;67055.97;4975189;28;20038;-82
2022/12/02 01:18:19;;;;;;;61.15;32.97;;;;;;;2.53;100.00;67058.78;4972821;28;20043;-82
2022/12/02 01:20:45;;;;;;;69.47;33.20;;;;;;;2.60;100.00;67058.22;4979511;28;20635;-82
2022/12/02 01:23:10;;;;;;;67.15;32.60;;;;;;;2.61;100.00;67067.22;4978488;28;20189;-82
2022/12/02 01:25:36;;;;;;;69.88;36.47;;;;;;;2.55;100.00;67055.78;4978380;28;20058;-83
2022/12/02 01:28:04;;;;;;;62.42;33.25;;;;;;;2.56;100.00;67062.16;4970769;28;20042;-82
2022/12/02 01:30:29;;;;;;;64.88;33.65;;;;;;;2.56;100.00;67062.16;4982981;28;20091;-82
2022/12/02 01:32:54;;;;;;;61.83;30.30;;;;;;;2.59;100.00;67065.56;4980765;28;20105;-82
2022/12/02 01:35:20;;;;;;;64.45;33.75;;;;;;;;;;4974648;28;20048;-83
2022/12/02 01:37:45;;;;;;;62.15;31.50;;;;;;;2.58;100.00;67066.47;4978419;28;20126;-83
2022/12/02 01:40:12;;;;;;;64.57;32.38;;;;;;;2.61;100.00;67062.53;4994191;28;20057;-83
2022/12/02 01:42:38;;;;;;;63.90;32.72;;;;;;;2.56;100.00;67056.91;4997953;28;20041;-82
2022/12/02 01:45:05;;;;;;;63.80;31.35;;;;;;;2.57;100.00;67062.72;4984059;28;20031;-83
2022/12/02 01:47:30;;;;;;;62.45;32.78;;;;;;;2.53;100.00;67058.22;4993856;28;20047;-83
2022/12/02 01:49:56;;;;;;;61.95;31.55;;;;;;;2.56;100.00;67061.59;4983361;28;20037;-82
2022/12/02 01:52:22;;;;;;;60.78;30.30;;;;;;;2.60;100.00;67068.75;4981752;28;20357;-82
2022/12/02 01:54:49;;;;;;;58.45;30.25;;;;;;;2.56;100.00;67056.34;4978657;28;20462;-82
2022/12/02 01:57:15;;;;;;;61.10;30.35;;;;;;;2.57;100.00;67062.72;4979298;28;20045;-83
2022/12/02 01:59:42;;;;;;;59.40;30.77;;;;;;;2.59;100.00;67067.59;4980394;28;20414;-82
2022/12/02 02:02:25;;;;;;;62.60;31.60;;;;;;;;;;4988282;28;20058;-82
2022/12/02 02:04:59;;;;;;;61.25;30.33;;;;;;;2.61;100.00;67067.22;4980798;28;20042;-82
2022/12/02 02:07:25;;;;;;;58.83;30.83;;;;;;;2.54;100.00;67059.91;4981003;28;20126;-82
2022/12/02 02:09:51;;;;;;;64.28;32.30;;;;;;;2.55;100.00;67060.47;4983528;28;20042;-82
2022/12/02 02:12:17;;;;;;;63.92;31.05;;;;;;;2.58;100.00;67059.16;4983725;28;20043;-82
2022/12/02 02:14:42;;;;;;;60.40;32.33;;;;;;;2.56;100.00;67062.16;4982368;28;20066;-82
2022/12/02 02:17:08;;;;;;;61.15;31.98;;;;;;;;;;4981992;28;20054;-82
2022/12/02 02:19:33;;;;;;;66.13;33.22;;;;;;;2.55;100.00;67055.78;4982060;28;20101;-83
2022/12/02 02:22:02;;;;;;;63.80;29.27;;;;;;;2.61;100.00;67067.78;4978118;28;20087;-83
2022/12/02 02:24:27;;;;;;;60.75;31.30;;;;;;;2.58;100.00;67063.84;4984392;28;20046;-83
2022/12/02 02:26:53;;;;;;;62.97;31.92;;;;;;;2.61;100.00;67067.22;4985738;28;20035;-83
2022/12/02 02:29:18;;;;;;;62.20;32.95;;;;;;;2.56;100.00;67064.78;4987058;28;20505;-83
2022/12/02 02:31:43;;;;;;;62.33;31.73;;;;;;;2.57;100.00;67062.72;4986311;28;20079;-83
2022/12/02 02:34:09;;;;;;;58.53;29.77;;;;;;;2.60;100.00;67066.09;4980432;28;20481;-82
2022/12/02 02:36:34;;;;;;;59.13;29.52;;;;;;;;;;4977028;28;20042;-82
2022/12/02 02:39:00;;;;;;;56.10;27.83;;;;;;;2.62;100.00;67061.03;4976146;28;20047;-82
2022/12/02 02:41:26;;;;;;;60.85;29.60;;;;;;;2.65;100.00;67071.75;4978133;28;20468;-82
2022/12/02 02:43:53;;;;;;;62.25;30.10;;;;;;;2.64;100.00;67071.16;4978686;28;20454;-82
2022/12/02 02:46:18;;;;;;;60.47;28.83;;;;;;;2.63;100.00;67069.50;4978724;28;20039;-82
2022/12/02 02:48:44;;;;;;;61.88;30.77;;;;;;;;;;4976674;28;20046;-82
2022/12/02 02:51:11;;;;;;;60.15;30.13;;;;;;;2.59;100.00;67060.28;4982620;28;20824;-82
2022/12/02 02:53:36;;;;;;;60.17;29.67;;;;;;;;;;4980947;28;20117;-82
2022/12/02 02:56:02;;;;;;;64.72;28.98;;;;;;;;;;4979420;28;20066;-82
2022/12/02 02:58:27;;;;;;;60.38;30.70;;;;;;;2.61;100.00;67072.47;4993509;28;20109;-82
2022/12/02 03:00:55;;;;;;;61.60;30.42;;;;;;;;;;4984343;28;20041;-82
2022/12/02 03:03:22;;;;;;;59.25;31.00;;;;;;;;;;4984564;28;20078;-82
2022/12/02 03:05:50;;;;;;;64.93;31.30;;;;;;;2.57;100.00;67065.91;4984073;28;20042;-82
2022/12/02 03:08:15;;;;;;;60.45;27.13;;;;;;;;;;4979906;28;20035;-82
2022/12/02 03:10:41;;;;;;;61.28;31.85;;;;;;;2.58;100.00;67063.84;4985597;28;20053;-82
2022/12/02 03:13:06;;;;;;;60.10;28.00;;;;;;;;;;4990919;28;20047;-82
2022/12/02 03:15:32;;;;;;;56.38;29.88;;;;;;;2.53;100.00;67053.50;5008257;28;20046;-83
2022/12/02 03:17:57;;;;;;;62.15;28.38;;;;;;;2.55;100.00;67055.22;4997830;28;20335;-83
2022/12/02 03:20:24;;;;;;;56.92;27.65;;;;;;;2.55;100.00;67063.09;4980102;28;20047;-83
2022/12/02 03:22:49;;;;;;;53.90;27.88;;;;;;;2.54;100.00;67059.34;4986202;28;20042;-83
2022/12/02 03:25:15;;;;;;;54.63;25.02;;;;;;;2.58;100.00;67059.16;4976618;28;20041;-82
2022/12/02 03:27:40;;;;;;;57.28;25.65;;;;;;;;;;5001647;28;20046;-82
2022/12/02 03:30:06;;;;;;;56.20;23.60;;;;;;;2.55;100.00;67060.47;4988008;28;20066;-82
2022/12/02 03:32:32;;;;;;;57.67;25.58;;;;;;;2.59;100.00;67059.72;4988468;28;20043;-83
2022/12/02 03:34:59;;;;;;;58.35;28.40;;;;;;;2.53;100.00;67058.78;4988258;28;20039;-82
2022/12/02 03:37:25;;;;;;;56.72;28.73;;;;;;;2.54;100.00;67059.34;5001684;28;20039;-82
2022/12/02 03:39:50;;;;;;;57.80;29.67;;;;;;;2.52;100.00;67057.66;4994087;28;20039;-82
2022/12/02 03:42:16;;;;;;;54.53;25.33;;;;;;;;;;4967241;28;20268;-83
2022/12/02 03:44:42;;;;;;;59.33;28.05;;;;;;;2.52;100.00;67057.09;4982326;28;20069;-83
2022/12/02 03:47:07;;;;;;;52.40;24.45;;;;;;;;;;4978096;28;20040;-83
2022/12/02 03:49:33;;;;;;;60.55;29.85;;;;;;;;;;4988739;28;20510;-83
2022/12/02 03:51:59;;;;;;;56.45;26.25;;;;;;;2.53;100.00;67058.78;4986231;28;20058;-82
2022/12/02 03:54:24;;;;;;;57.63;28.92;;;;;;;2.53;100.00;67052.97;4975244;28;20042;-83
2022/12/02 03:56:50;;;;;;;53.88;27.42;;;;;;;2.48;100.00;67053.72;4985370;28;20043;-82
2022/12/02 03:59:20;;;;;;;53.22;26.58;;;;;;;2.45;100.00;67050.34;4979180;28;20047;-82
2022/12/02 04:01:46;;;;;;;53.78;26.65;;;;;;;2.49;100.00;67054.81;4989831;28;20050;-82
2022/12/02 04:04:11;;;;;;;53.13;26.85;;;;;;;;;;4986627;28;20035;-82
2022/12/02 04:06:37;;;;;;;56.80;26.73;;;;;;;2.46;100.00;67051.44;5003692;28;20112;-82
2022/12/02 04:09:02;;;;;;;53.58;26.80;;;;;;;2.51;100.00;67056.53;4996384;28;20097;-82
2022/12/02 04:11:28;;;;;;;50.88;27.70;;;;;;;2.49;100.00;67046.94;5006024;28;20059;-83
2022/12/02 04:13:53;;;;;;;55.95;28.05;;;;;;;2.46;100.00;67054.06;4985724;28;20050;-82
2022/12/02 04:16:18;;;;;;;53.60;25.95;;;;;;;;;;4975816;28;20125;-82
2022/12/02 04:18:44;;;;;;;55.35;27.05;;;;;;;2.46;100.00;67051.44;4986410;28;20438;-82
2022/12/02 04:21:09;;;;;;;57.20;27.92;;;;;;;2.44;100.00;67049.19;4988314;28;20038;-82
2022/12/02 04:23:34;;;;;;;53.83;24.27;;;;;;;;;;4983439;28;20045;-82
2022/12/02 04:26:00;;;;;;;58.67;29.52;;;;;;;2.43;100.00;67042.81;4994933;28;20447;-82
2022/12/02 04:28:25;;;;;;;52.22;24.88;;;;;;;2.44;100.00;67048.63;4991038;28;20613;-82
2022/12/02 04:30:50;;;;;;;55.83;28.98;;;;;;;2.38;100.00;67042.44;4985307;28;20035;-82
2022/12/02 04:33:16;;;;;;;53.20;28.65;;;;;;;2.37;100.00;67040.75;4972016;28;20066;-82
2022/12/02 04:35:41;;;;;;;55.90;28.25;;;;;;;2.44;100.00;67043.38;4963283;28;20044;-83
2022/12/02 04:38:06;;;;;;;57.78;28.45;;;;;;;;;;4968034;28;20042;-82
2022/12/02 04:40:32;;;;;;;63.53;27.48;;;;;;;2.46;100.00;67053.53;4984577;28;20046;-82
2022/12/02 04:42:57;;;;;;;60.30;29.33;;;;;;;;;;4980831;28;20065;-82
2022/12/02 04:45:22;;;;;;;60.28;27.42;;;;;;;2.43;100.00;67048.06;4967880;28;20046;-82
2022/12/02 04:47:47;;;;;;;63.38;31.30;;;;;;;;;;4968676;28;20074;-82
2022/12/02 04:50:13;;;;;;;64.15;30.73;;;;;;;;;;4980967;28;20049;-83
2022/12/02 04:52:38;;;;;;;65.30;30.95;;;;;;;2.44;100.00;67043.94;4973150;28;20482;-83
2022/12/02 04:55:04;;;;;;;60.65;29.77;;;;;;;2.44;100.00;67048.63;4966319;28;20043;-83
2022/12/02 04:57:29;;;;;;;65.40;31.05;;;;;;;2.43;100.00;67048.06;4977262;28;20522;-82
2022/12/02 04:59:55;;;;;;;60.15;29.80;;;;;;;2.37;100.00;67041.31;4997022;28;20043;-82
2022/12/02 05:02:20;;;;;;;64.50;30.67;;;;;;;2.36;100.00;67034.94;4978813;28;20039;-82
2022/12/02 05:04:45;;;;;;;58.38;30.80;;;;;;;2.39;100.00;67045.63;4979537;28;20090;-82
2022/12/02 05:07:11;;;;;;;60.65;26.63;;;;;;;;;;4969757;28;20071;-83
2022/12/02 05:09:36;;;;;;;61.17;28.45;;;;;;;2.36;100.00;67042.81;4982532;28;20050;-83
2022/12/02 05:12:01;;;;;;;67.25;31.58;;;;;;;2.31;100.00;67034.56;4985731;28;20047;-82
2022/12/02 05:14:27;;;;;;;60.50;27.60;;;;;;;;;;4983865;28;20042;-82
2022/12/02 05:16:52;;;;;;;67.32;31.45;;;;;;;2.33;100.00;67036.81;4985262;28;20065;-82
2022/12/02 05:19:17;;;;;;;65.70;29.50;;;;;;;2.28;100.00;67033.81;4984117;28;20066;-83
2022/12/02 05:21:43;;;;;;;64.43;28.83;;;;;;;2.24;100.00;67029.88;4981045;28;20040;-83
2022/12/02 05:24:08;;;;;;;69.25;32.30;;;;;;;2.21;100.00;67023.28;4974226;28;20057;-84
2022/12/02 05:26:33;;;;;;;71.55;30.77;;;;;;;;;;4985793;28;20042;-82
2022/12/02 05:28:59;;;;;;;70.70;31.00;;;;;;;2.16;100.00;67020.84;4985460;28;20069;-85
2022/12/02 05:31:25;;;;;;;69.03;31.23;;;;;;;2.11;100.00;67012.03;4991384;28;20070;-84
2022/12/02 05:33:50;;;;;;;69.72;30.25;;;;;;;2.16;100.00;67018.22;4995423;28;20043;-84
2022/12/02 05:36:15;;;;;;;70.97;30.58;;;;;;;2.10;100.00;67005.63;4993115;28;20038;-84
2022/12/02 05:38:41;;;;;;;74.85;31.40;;;;;;;2.09;100.00;67012.38;4989403;28;20310;-84
2022/12/02 05:41:07;;;;;;;72.00;32.08;;;;;;;2.08;100.00;67008.66;4984714;28;20038;-84
2022/12/02 05:43:35;;;;;;;71.85;30.77;;;;;;;;;;4988194;28;20538;-84
2022/12/02 05:46:04;;;;;;;77.85;31.75;;;;;;;;;;4993198;28;20046;-84
2022/12/02 05:48:32;;;;;;;80.65;31.63;;;;;;;2.03;100.00;67004.13;4985011;28;20487;-83
2022/12/02 05:50:58;;;;;;;74.57;32.67;;;;;;;1.95;100.00;66994.56;4977052;28;20042;-83
2022/12/02 05:53:26;;;;;;;76.95;31.98;;;;;;;1.96;100.00;66998.88;4991059;28;20049;-83
2022/12/02 05:55:56;;;;;;;80.13;30.63;;;;;;;1.96;100.00;66996.25;4967972;28;20039;-83
2022/12/02 05:58:22;;;;;;;82.60;33.80;;;;;;;;;;4980573;28;20046;-83
2022/12/02 06:00:53;;;;;;;86.20;34.58;;;;;;;1.93;100.00;66987.06;4975166;28;20039;-83
2022/12/02 06:03:19;;;;;;;77.43;31.60;;;;;;;1.95;100.00;66995.13;4974919;28;20402;-83
2022/12/02 06:05:46;;;;;;;87.93;32.80;;;;;;;1.93;100.00;66992.88;4972389;28;20509;-83
2022/12/02 06:08:15;;;;;;;87.30;34.50;;;;;;;1.91;100.00;66990.63;4994011;28;20053;-83
2022/12/02 06:10:42;;;;;;;86.47;30.67;;;;;;;1.90;100.00;66988.91;4972046;28;20051;-83
2022/12/02 06:13:27;;;;;;;91.72;33.33;;;;;;;;;;4973768;28;20035;-84
2022/12/02 06:15:53;;;;;;;96.18;36.42;;;;;;;;;;4956719;28;20076;-83
2022/12/02 06:18:21;;;;;;;99.93;34.55;;;;;;;1.88;100.00;66987.25;4973517;28;20138;-84
2022/12/02 06:20:52;;;;;;;94.40;34.88;;;;;;;1.90;100.00;66984.25;4972665;28;20050;-84
2022/12/02 06:23:21;;;;;;;104.85;37.95;;;;;;;1.88;100.00;66981.44;4971740;28;20043;-83
2022/12/02 06:25:48;;;;;;;104.97;39.28;;;;;;;;;;4982065;28;20050;-83
2022/12/02 06:28:58;;;;;;;108.75;40.22;;;;;;;1.85;100.00;66983.88;4982096;28;20343;-84
2022/12/02 06:31:30;;;;;;;106.47;39.10;;;;;;;1.86;100.00;66984.97;4901599;29;20055;-83
2022/12/02 06:33:57;;;;;;;103.60;36.38;;;;;;;;;;4975772;28;20098;-83
2022/12/02 06:36:24;;;;;;;101.07;35.03;;;;;;;;;;4985201;28;20440;-83
2022/12/02 06:38:50;;;;;;;106.28;39.42;;;;;;;;;;4979132;28;20101;-83
2022/12/02 06:41:35;;;;;;;102.47;36.05;;;;;;;;;;4986445;28;20047;-83
2022/12/02 06:47:33;;;;;;;116.50;36.67;;;;;;;1.90;100.00;66983.66;4983647;28;20097;-83
2022/12/02 06:50:05;;;;;;;105.25;34.88;;;;;;;1.87;100.00;66986.13;4979305;28;20073;-84
2022/12/02 06:52:48;;;;;;;109.57;39.28;;;;;;;1.91;100.00;66990.63;4980308;28;20115;-84
2022/12/02 06:55:25;;;;;;;110.22;39.13;;;;;;;1.90;100.00;66994.75;4980770;28;20073;-83
2022/12/02 06:57:51;;;;;;;108.03;39.92;;;;;;;1.90;100.00;66989.50;4979182;28;20549;-84
2022/12/02 07:00:17;;;;;;;105.47;36.97;;;;;;;1.91;100.00;66990.63;4980575;28;20073;-83
2022/12/02 07:02:42;;;;;;;108.28;39.15;;;;;;;1.89;100.00;66987.81;4984074;28;20078;-83
2022/12/02 07:05:08;;;;;;;112.68;36.08;;;;;;;;;;4975744;28;20050;-83
2022/12/02 07:07:34;;;;;;;102.60;38.60;;;;;;;;;;4985711;28;20066;-83
2022/12/02 07:10:03;;;;;;;104.90;39.97;;;;;;;1.89;100.00;66988.34;4982703;28;20057;-83
2022/12/02 07:12:35;;;;;;;105.40;37.47;;;;;;;1.94;100.00;66994.00;4977348;28;20043;-83
2022/12/02 07:15:23;;;;;;;95.55;31.02;;;;;;;1.94;100.00;66994.00;4988003;28;20038;-83
2022/12/02 07:17:49;;;;;;;93.15;35.50;;;;;;;1.92;100.00;66991.75;4981659;28;20047;-83
2022/12/02 07:20:14;;;;;;;96.20;35.45;;;;;;;;;;4984289;28;20074;-83
2022/12/02 07:22:55;;;;;;;84.45;32.75;;;;;;;1.90;100.00;66988.91;4975729;28;20043;-83
2022/12/02 07:25:35;;;;;;;83.40;33.70;;;;;;;;;;4983521;28;20676;-83
2022/12/02 07:28:05;;;;;;;79.63;32.92;;;;;;;;;;4972994;28;20047;-82
2022/12/02 07:30:33;;;;;;;73.97;31.08;;;;;;;;;;4987619;28;20046;-83
2022/12/02 07:32:59;;;;;;;65.07;31.83;;;;;;;;;;4970023;28;20042;-83
2022/12/02 07:35:25;;;;;;;63.38;24.58;;;;;;;1.88;100.00;66982.00;4974993;28;20049;-83
2022/12/02 07:37:50;;;;;;;65.57;29.80;;;;;;;1.87;100.00;66980.28;4978513;28;20039;-82
2022/12/02 07:40:16;;;;;;;62.28;27.60;;;;;;;1.90;100.00;66988.91;4978646;28;20043;-83
2022/12/02 07:42:42;;;;;;;62.72;29.52;;;;;;;1.91;100.00;66985.38;4981855;28;20403;-83
2022/12/02 07:45:10;;;;;;;61.50;29.70;;;;;;;1.92;100.00;66991.75;4983422;28;20521;-82
2022/12/02 07:47:35;;;;;;;61.78;28.35;;;;;;;;;;4982082;28;20039;-83
2022/12/02 07:50:00;;;;;;;57.97;25.88;;;;;;;;;;4981659;28;20093;-83
2022/12/02 07:52:26;;;;;;;60.55;27.98;;;;;;;1.90;100.00;66981.63;4978813;28;20506;-83
2022/12/02 07:54:53;;;;;;;59.95;27.92;;;;;;;;;;4976804;28;20043;-83
2022/12/02 07:57:18;;;;;;;55.03;24.67;;;;;;;;;;4986813;28;20069;-82
2022/12/02 07:59:43;;;;;;;61.75;24.05;;;;;;;;;;4999455;28;20039;-83
2022/12/02 08:02:09;;;;;;;61.15;23.38;;;;;;;1.97;100.00;66997.38;4984727;28;20081;-83
2022/12/02 08:04:34;;;;;;;56.90;27.60;;;;;;;1.94;100.00;66994.00;4970038;28;20049;-83
2022/12/02 08:06:59;;;;;;;59.28;25.10;;;;;;;;;;4985206;28;20042;-82
2022/12/02 08:09:25;;;;;;;61.78;29.13;;;;;;;1.94;100.00;66994.00;4983558;28;20039;-83
2022/12/02 08:11:50;;;;;;;64.05;29.65;;;;;;;1.93;100.00;66987.63;4985144;28;20066;-82
2022/12/02 08:14:15;;;;;;;61.50;30.30;;;;;;;;;;4984812;28;20042;-83
2022/12/02 08:16:41;;;;;;;53.13;26.05;;;;;;;;;;4976564;28;20107;-83
2022/12/02 08:19:06;;;;;;;64.50;29.38;;;;;;;1.93;100.00;66987.63;4978511;28;20102;-83
2022/12/02 08:21:31;;;;;;;60.13;26.67;;;;;;;;;;4983069;28;20050;-83
2022/12/02 08:23:57;;;;;;;62.72;30.30;;;;;;;1.90;100.00;66988.91;4984856;28;20038;-82
2022/12/02 08:26:22;;;;;;;67.00;26.38;;;;;;;1.91;100.00;66982.19;4984485;28;20042;-82
2022/12/02 08:28:47;;;;;;;61.20;24.75;;;;;;;;;;4986128;28;20038;-82
2022/12/02 08:31:13;;;;;;;66.65;29.77;;;;;;;;;;4982129;28;20045;-82
2022/12/02 08:33:38;;;;;;;63.75;28.63;;;;;;;1.90;100.00;66989.50;4990418;28;20051;-83
2022/12/02 08:36:04;;;;;;;64.03;23.38;;;;;;;1.94;100.00;66988.75;5004297;28;20039;-83
2022/12/02 08:38:29;;;;;;;66.05;29.00;;;;;;;1.94;100.00;66988.19;4984800;28;20050;-83
2022/12/02 08:40:55;;;;;;;64.60;29.23;;;;;;;1.95;100.00;66995.13;4979079;28;20035;-83
2022/12/02 08:43:20;;;;;;;63.60;28.33;;;;;;;1.93;100.00;66992.88;4965267;28;20035;-83
2022/12/02 08:45:45;;;;;;;61.97;27.65;;;;;;;1.93;100.00;66987.63;4980764;28;20043;-83
2022/12/02 08:48:11;;;;;;;70.15;31.40;;;;;;;;;;4985094;28;20130;-83
2022/12/02 08:50:36;;;;;;;73.70;29.08;;;;;;;;;;4987060;28;20039;-82
2022/12/02 08:53:02;;;;;;;74.38;32.03;;;;;;;1.97;100.00;66997.38;4997854;28;20557;-83
2022/12/02 08:55:28;;;;;;;85.82;31.90;;;;;;;1.98;100.00;66998.50;4970249;28;20042;-83
2022/12/02 08:57:53;;;;;;;87.90;33.38;;;;;;;1.99;100.00;66999.06;4983676;28;20494;-83
2022/12/02 09:00:18;;;;;;;98.18;33.85;;;;;;;;;;4990243;28;20098;-82
2022/12/02 09:02:43;;;;;;;88.97;35.90;;;;;;;;;;4991522;28;20045;-82
2022/12/02 09:05:09;;;;;;;85.65;33.92;;;;;;;1.98;100.00;66993.25;4971200;28;20046;-82
2022/12/02 09:07:34;;;;;;;89.88;35.20;;;;;;;;;;4967812;28;20035;-82
2022/12/02 09:10:00;;;;;;;91.40;35.03;;;;;;;1.96;100.00;66996.25;4963429;28;20098;-82
2022/12/02 09:12:26;;;;;;;92.40;35.95;;;;;;;1.95;100.00;66994.56;4984613;28;20084;-82
2022/12/02 09:14:52;;;;;;;100.82;38.10;;;;;;;;;;4977050;28;20054;-82
2022/12/02 09:17:17;;;;;;;101.13;36.20;;;;;;;1.93;100.00;66992.88;4976718;28;20038;-82
2022/12/02 09:19:42;;;;;;;102.10;38.47;;;;;;;1.91;100.00;66992.69;4983738;28;20066;-82
2022/12/02 09:22:08;;;;;;;85.50;32.67;;;;;;;1.95;100.00;66989.88;4973661;28;20037;-82
2022/12/02 09:24:33;;;;;;;99.45;37.30;;;;;;;1.91;100.00;66990.63;4977888;28;20530;-82
2022/12/02 09:26:58;;;;;;;93.88;32.63;;;;;;;1.96;100.00;66990.44;4976613;28;20043;-82
2022/12/02 09:29:24;;;;;;;101.72;39.13;;;;;;;;;;4985666;28;20041;-82
2022/12/02 09:31:49;;;;;;;90.07;33.70;;;;;;;1.84;100.00;66976.91;4983104;28;20105;-82
2022/12/02 09:34:14;;;;;;;84.30;28.90;;;;;;;1.87;100.00;66980.88;4971437;28;20507;-82
2022/12/02 09:36:40;;;;;;;72.03;31.35;;;;;;;;;;4978324;28;20051;-82
2022/12/02 09:39:05;;;;;;;76.43;29.05;;;;;;;1.86;100.00;66987.03;4979115;28;20070;-82
2022/12/02 09:41:30;;;;;;;65.88;28.65;;;;;;;1.84;100.00;66982.72;4980599;28;20050;-82
2022/12/02 09:43:56;;;;;;;67.30;27.23;;;;;;;1.87;100.00;66985.53;4979711;28;20094;-82
2022/12/02 09:46:21;;;;;;;69.80;28.50;;;;;;;1.91;100.00;66990.06;4976426;28;20034;-82
2022/12/02 09:48:47;;;;;;;56.20;26.02;;;;;;;;;;4967077;28;20046;-82
2022/12/02 09:51:12;;;;;;;60.92;25.67;;;;;;;1.92;100.00;66991.19;4982012;28;20039;-82
2022/12/02 09:53:39;;;;;;;58.35;24.67;;;;;;;;;;4958412;28;20113;-82
2022/12/02 09:56:08;;;;;;;60.97;25.55;;;;;;;1.88;100.00;66986.69;4971179;28;20043;-82
2022/12/02 09:58:36;;;;;;;60.33;24.63;;;;;;;1.92;100.00;66991.75;4978495;28;20038;-82
2022/12/02 10:01:01;;;;;;;50.28;22.13;;;;;;;;;;4968598;28;20494;-82
2022/12/02 10:03:27;;;;;;;51.92;21.88;;;;;;;1.96;100.00;66998.88;4968962;28;20093;-82
2022/12/02 10:05:53;;;;;;;49.47;22.63;;;;;;;;;;4978537;28;20038;-82
2022/12/02 10:08:23;;;;;;;46.78;17.70;;;;;;;2.00;100.00;67002.81;4970513;28;20519;-83
2022/12/02 10:10:52;;;;;;;48.47;22.88;;;;;;;1.97;100.00;66997.38;4969338;28;20035;-82
2022/12/02 10:13:19;;;;;;;46.03;20.92;;;;;;;1.99;100.00;66999.63;4976446;28;20499;-82
2022/12/02 10:15:45;;;;;;;43.00;21.08;;;;;;;2.02;100.00;67003.00;4977453;28;20460;-82
2022/12/02 10:18:22;;;;;;;45.47;21.40;;;;;;;1.99;100.00;66999.63;4982480;28;20190;-82
2022/12/02 10:20:49;;;;;;;46.97;21.73;;;;;;;2.01;100.00;67001.91;4991858;28;20047;-82
2022/12/02 10:23:14;;;;;;;43.22;19.27;;;;;;;;;;4979587;28;20102;-82
2022/12/02 10:25:45;;;;;;;43.00;19.48;;;;;;;2.05;100.00;67000.56;4978889;28;20066;-82
2022/12/02 10:28:37;;;;;;;51.80;21.77;;;;;;;;;;4966073;28;20472;-82
2022/12/02 10:31:18;;;;;;;43.80;21.10;;;;;;;2.02;100.00;66997.75;4975132;28;20047;-82
2022/12/02 10:33:55;;;;;;;46.20;19.33;;;;;;;;;;4978652;28;20039;-82
2022/12/02 10:36:34;;;;;;;54.50;23.25;;;;;;;;;;4976349;28;20069;-82
2022/12/02 10:39:23;;;;;;;50.92;21.60;;;;;;;;;;4973380;28;20051;-82
2022/12/02 10:42:06;;;;;;;50.92;22.50;;;;;;;2.00;100.00;67003.38;4975649;28;20047;-82
2022/12/02 10:44:36;;;;;;;47.85;20.95;;;;;;;;;;4996089;28;20047;-82
2022/12/02 10:47:13;;;;;;;55.13;23.67;;;;;;;2.12;100.00;67013.16;4981049;28;20042;-82
2022/12/02 10:49:47;;;;;;;57.95;25.42;;;;;;;2.08;100.00;67003.97;4979253;28;20042;-82
2022/12/02 10:52:14;;;;;;;56.30;21.13;;;;;;;2.17;100.00;67018.78;4974504;28;20067;-82
2022/12/02 10:54:42;;;;;;;52.50;20.98;;;;;;;;;;4973114;28;20394;-82
2022/12/02 10:57:10;;;;;;;59.20;22.52;;;;;;;;;;4981188;28;20046;-82
2022/12/02 10:59:35;;;;;;;57.33;25.50;;;;;;;2.12;100.00;67013.16;4980110;28;20150;-82
2022/12/02 11:02:01;;;;;;;62.67;25.02;;;;;;;2.09;100.00;67012.38;4970835;28;20495;-82
2022/12/02 11:04:27;;;;;;;60.63;26.52;;;;;;;;;;4969170;28;20047;-82
2022/12/02 11:06:53;;;;;;;57.60;26.50;;;;;;;;;;4980264;28;20134;-82
2022/12/02 11:09:22;;;;;;;49.20;20.60;;;;;;;;;;4975594;28;20055;-82
2022/12/02 11:11:48;;;;;;;48.35;21.15;;;;;;;2.13;100.00;67016.88;4980078;28;20039;-83
2022/12/02 11:14:33;;;;;;;56.17;24.83;;;;;;;;;;4981445;28;20039;-82
2022/12/02 11:17:18;;;;;;;55.08;22.35;;;;;;;;;;4970087;28;20069;-82
2022/12/02 11:19:45;;;;;;;50.88;27.80;;;;;;;;;;4981551;28;20518;-82
2022/12/02 11:22:45;;;;;;;59.08;27.75;;;;;;;2.11;100.00;67012.59;4984669;28;20051;-82
2022/12/02 11:25:30;;;;;;;52.97;26.08;;;;;;;;;;4975381;28;20038;-82
2022/12/02 11:28:14;;;;;;;50.88;26.92;;;;;;;;;;4953341;28;20058;-82
2022/12/02 11:30:39;;;;;;;54.95;24.83;;;;;;;;;;4966888;28;20129;-83
2022/12/02 11:33:09;;;;;;;57.92;28.00;;;;;;;2.06;100.00;67006.38;4983543;28;20046;-83
2022/12/02 11:35:53;;;;;;;55.22;28.90;;;;;;;;;;4980465;28;20039;-82
2022/12/02 11:38:19;;;;;;;56.20;25.63;;;;;;;;;;4975687;28;20093;-82
2022/12/02 11:40:44;;;;;;;55.22;26.60;;;;;;;2.17;100.00;67014.09;4982689;28;20042;-83
2022/12/02 11:43:44;;;;;;;53.80;24.10;;;;;;;2.17;100.00;67018.78;4978042;28;20400;-83
2022/12/02 11:46:09;;;;;;;52.00;27.33;;;;;;;;;;4950942;28;20522;-82
2022/12/02 11:48:51;;;;;;;50.85;24.83;;;;;;;2.08;100.00;67009.22;4976012;28;20300;-83
2022/12/02 11:51:32;;;;;;;50.95;26.15;;;;;;;;;;4974117;28;20039;-83
2022/12/02 11:53:58;;;;;;;58.63;26.98;;;;;;;2.14;100.00;67015.41;4981578;28;20062;-83
2022/12/02 11:56:38;;;;;;;51.60;26.95;;;;;;;2.09;100.00;67009.75;4982664;28;20510;-84
2022/12/02 11:59:26;;;;;;;54.45;28.17;;;;;;;2.09;100.00;67010.31;4981703;28;20046;-82
2022/12/02 12:02:13;;;;;;;54.72;26.83;;;;;;;2.08;100.00;67003.97;4981741;28;20065;-84
2022/12/02 12:04:39;;;;;;;60.42;32.88;;;;;;;2.02;100.00;67002.44;4982331;28;20442;-83
2022/12/02 12:07:06;;;;;;;61.67;31.27;;;;;;;2.07;100.00;67002.25;4983573;28;20531;-83
2022/12/02 12:09:31;;;;;;;61.17;30.33;;;;;;;;;;4975585;28;20046;-83
2022/12/02 12:12:09;;;;;;;64.07;34.08;;;;;;;;;;4980598;28;20047;-84
2022/12/02 12:14:56;;;;;;;76.03;43.05;;;;;;;1.97;100.00;66991.56;4981574;28;20039;-83
2022/12/02 12:17:37;;;;;;;92.70;50.33;;;;;;;1.93;100.00;66992.88;4978867;28;20039;-83